Time;durP1;ratioP1;P1;durP2;ratioP2;P2;SDS_P1;SDS_P2;PMS_P1;PMS_P2;Temp;Humidity;BMP_temperature;BMP_pressure;BME280_temperature;BME280_humidity;BME280_pressure;Samples;Min_cycle;Max_cycle;Signal;HPM_P1;HPM_P2
2021/09/09 00:01:29;;;;;;;8.23;4.55;;;23.10;90.80;;;;;;4961393;28;20051;-74
2021/09/09 00:04:00;;;;;;;4.93;4.43;;;23.20;90.90;;;;;;4953954;28;20501;-74
2021/09/09 00:06:29;;;;;;;5.45;4.10;;;23.10;90.90;;;;;;4963912;28;20046;-74
2021/09/09 00:09:00;;;;;;;6.45;4.03;;;23.00;91.00;;;;;;4964126;28;20181;-73
2021/09/09 00:11:30;;;;;;;5.75;4.20;;;23.00;90.90;;;;;;4961120;28;20031;-74
2021/09/09 00:13:59;;;;;;;8.63;4.85;;;22.90;91.20;;;;;;4947042;28;20080;-74
2021/09/09 00:16:30;;;;;;;6.10;4.38;;;22.90;90.10;;;;;;4963032;28;20055;-73
2021/09/09 00:19:01;;;;;;;5.45;4.50;;;22.60;90.60;;;;;;4959224;28;20039;-74
2021/09/09 00:21:31;;;;;;;8.35;4.68;;;22.70;90.90;;;;;;4959338;28;20089;-74
2021/09/09 00:24:00;;;;;;;5.55;4.68;;;22.70;91.00;;;;;;4959946;28;20200;-74
2021/09/09 00:26:29;;;;;;;5.90;4.50;;;22.50;92.20;;;;;;4962531;28;20552;-74
2021/09/09 00:29:03;;;;;;;5.38;4.78;;;22.40;93.00;;;;;;4955302;28;20039;-74
2021/09/09 00:31:32;;;;;;;5.55;4.90;;;22.30;93.90;;;;;;4962474;28;20162;-74
2021/09/09 00:34:03;;;;;;;10.82;4.32;;;22.30;94.60;;;;;;4960242;28;20047;-74
2021/09/09 00:36:32;;;;;;;6.53;4.55;;;22.50;94.50;;;;;;4944353;28;20050;-74
2021/09/09 00:39:02;;;;;;;6.72;4.90;;;22.60;94.00;;;;;;4961895;28;20134;-74
2021/09/09 00:41:33;;;;;;;5.18;4.68;;;22.70;93.50;;;;;;4963202;28;20105;-74
2021/09/09 00:44:02;;;;;;;5.28;4.75;;;22.60;94.70;;;;;;4957972;28;20089;-74
2021/09/09 00:46:31;;;;;;;5.47;4.80;;;22.40;96.00;;;;;;4954704;28;20046;-74
2021/09/09 00:49:00;;;;;;;6.03;4.63;;;22.20;96.70;;;;;;4957102;28;20066;-74
2021/09/09 00:51:30;;;;;;;5.55;4.30;;;22.10;96.70;;;;;;4957633;28;20046;-74
2021/09/09 00:53:59;;;;;;;7.13;4.78;;;22.10;96.70;;;;;;4958376;28;20042;-74
2021/09/09 00:56:27;;;;;;;6.32;4.57;;;22.00;96.50;;;;;;4962777;28;20102;-74
2021/09/09 00:58:56;;;;;;;6.90;4.72;;;22.10;95.60;;;;;;4957462;28;20409;-74
2021/09/09 01:01:24;;;;;;;5.80;4.38;;;22.10;95.00;;;;;;4962920;28;20062;-74
2021/09/09 01:03:53;;;;;;;7.03;4.43;;;22.20;94.60;;;;;;4960378;28;20126;-74
2021/09/09 01:06:22;;;;;;;5.25;4.03;;;22.10;94.40;;;;;;4960190;28;20509;-74
2021/09/09 01:08:52;;;;;;;5.25;4.38;;;22.10;94.50;;;;;;4961423;28;20050;-74
2021/09/09 01:11:21;;;;;;;5.10;4.40;;;22.10;94.50;;;;;;4954483;28;20357;-74
2021/09/09 01:13:50;;;;;;;6.40;4.50;;;22.10;94.40;;;;;;4959893;28;20050;-74
2021/09/09 01:16:19;;;;;;;5.90;4.60;;;22.20;94.30;;;;;;4960589;28;20098;-74
2021/09/09 01:18:48;;;;;;;7.40;4.50;;;22.30;94.00;;;;;;4965405;28;20042;-74
2021/09/09 01:21:16;;;;;;;10.35;4.95;;;22.30;93.80;;;;;;4970250;28;20072;-74
2021/09/09 01:23:48;;;;;;;6.00;4.57;;;22.20;93.90;;;;;;4966652;28;20049;-74
2021/09/09 01:26:19;;;;;;;7.45;4.60;;;22.10;94.10;;;;;;4971702;28;20066;-74
2021/09/09 01:28:47;;;;;;;5.93;4.30;;;21.90;94.30;;;;;;4967941;28;20125;-74
2021/09/09 01:31:17;;;;;;;5.43;4.25;;;21.80;94.60;;;;;;4961231;28;20038;-74
2021/09/09 01:33:45;;;;;;;8.07;4.53;;;21.70;94.70;;;;;;4976466;28;20067;-74
2021/09/09 01:36:14;;;;;;;4.88;4.18;;;21.60;95.10;;;;;;4953245;28;20047;-73
2021/09/09 01:38:42;;;;;;;5.10;3.85;;;21.60;95.70;;;;;;4963415;28;20086;-73
2021/09/09 01:41:11;;;;;;;4.68;4.05;;;21.60;95.70;;;;;;4957707;28;20069;-74
2021/09/09 01:43:41;;;;;;;6.15;4.18;;;21.70;95.20;;;;;;4961775;28;20053;-74
2021/09/09 01:46:10;;;;;;;5.47;4.20;;;21.60;95.30;;;;;;4955159;28;20158;-73
2021/09/09 01:48:39;;;;;;;6.25;4.25;;;21.60;95.20;;;;;;4946213;28;20046;-74
2021/09/09 01:51:07;;;;;;;7.03;4.50;;;21.60;95.00;;;;;;4960883;28;20457;-74
2021/09/09 01:53:36;;;;;;;5.22;4.72;;;21.50;95.20;;;;;;4962570;28;20053;-74
2021/09/09 01:56:05;;;;;;;5.28;4.40;;;21.50;95.20;;;;;;4961883;28;20039;-73
2021/09/09 01:58:33;;;;;;;5.10;4.38;;;21.40;95.40;;;;;;4969471;28;20066;-74
2021/09/09 02:01:03;;;;;;;5.80;4.50;;;21.50;95.20;;;;;;4963703;28;20509;-74
2021/09/09 02:03:32;;;;;;;6.07;4.53;;;21.60;95.00;;;;;;4959739;28;20559;-74
2021/09/09 02:06:01;;;;;;;5.70;4.25;;;21.60;95.10;;;;;;4949393;28;20057;-74
2021/09/09 02:08:29;;;;;;;6.57;4.38;;;21.60;95.00;;;;;;4968272;28;20481;-74
2021/09/09 02:10:58;;;;;;;6.90;5.05;;;21.50;95.40;;;;;;4961391;28;20054;-74
2021/09/09 02:13:26;;;;;;;5.72;4.28;;;21.50;95.30;;;;;;4965065;28;20050;-73
2021/09/09 02:15:55;;;;;;;5.55;4.93;;;21.40;95.50;;;;;;4959140;28;20549;-74
2021/09/09 02:18:25;;;;;;;5.28;4.78;;;21.50;95.50;;;;;;4958503;28;20043;-74
2021/09/09 02:20:54;;;;;;;5.32;4.47;;;21.40;95.70;;;;;;4960701;28;20445;-74
2021/09/09 02:23:22;;;;;;;6.65;4.68;;;21.30;96.30;;;;;;4963544;28;20515;-73
2021/09/09 02:25:51;;;;;;;6.20;4.68;;;21.30;96.70;;;;;;4964278;28;20493;-74
2021/09/09 02:28:20;;;;;;;5.00;4.15;;;21.10;96.30;;;;;;4962355;28;20516;-74
2021/09/09 02:30:49;;;;;;;5.03;4.53;;;21.00;96.10;;;;;;4965351;28;20046;-74
2021/09/09 02:33:17;;;;;;;9.10;5.13;;;20.90;96.20;;;;;;4965171;28;20042;-74
2021/09/09 02:35:47;;;;;;;5.00;4.50;;;21.00;96.00;;;;;;4964336;28;20042;-74
2021/09/09 02:38:16;;;;;;;7.70;4.75;;;21.10;96.00;;;;;;4960903;28;20038;-74
2021/09/09 02:40:44;;;;;;;6.07;4.82;;;21.00;96.40;;;;;;4964524;28;20146;-74
2021/09/09 02:43:13;;;;;;;7.25;4.78;;;20.90;96.70;;;;;;4942328;28;20138;-74
2021/09/09 02:45:41;;;;;;;6.32;4.85;;;20.90;96.70;;;;;;4949748;28;20050;-74
2021/09/09 02:48:09;;;;;;;4.70;4.30;;;20.80;96.70;;;;;;4960731;28;20055;-73
2021/09/09 02:50:37;;;;;;;6.45;5.25;;;20.70;96.70;;;;;;4964628;28;20540;-74
2021/09/09 02:53:07;;;;;;;7.68;5.10;;;20.70;96.70;;;;;;4947378;28;20062;-74
2021/09/09 02:55:35;;;;;;;5.25;4.72;;;20.70;96.70;;;;;;4958259;28;20050;-74
2021/09/09 02:58:03;;;;;;;6.70;4.97;;;20.70;96.70;;;;;;4961913;28;20046;-74
2021/09/09 03:00:31;;;;;;;5.22;4.47;;;20.80;96.70;;;;;;4961043;28;20054;-73
2021/09/09 03:03:00;;;;;;;8.50;5.32;;;20.70;96.70;;;;;;4958939;28;20086;-73
2021/09/09 03:05:29;;;;;;;5.60;4.45;;;20.80;96.70;;;;;;4964854;28;20050;-74
2021/09/09 03:07:56;;;;;;;5.32;4.80;;;20.80;96.70;;;;;;4958009;28;20539;-74
2021/09/09 03:10:26;;;;;;;7.25;4.95;;;20.90;96.70;;;;;;4960143;28;20450;-74
2021/09/09 03:12:54;;;;;;;5.15;4.65;;;20.90;96.70;;;;;;4958040;28;20055;-74
2021/09/09 03:15:22;;;;;;;7.88;5.47;;;20.90;96.70;;;;;;4958740;28;20700;-74
2021/09/09 03:17:50;;;;;;;7.90;4.88;;;20.90;96.70;;;;;;4961085;28;20085;-74
2021/09/09 03:20:18;;;;;;;5.60;5.03;;;20.80;96.70;;;;;;4956500;28;20137;-74
2021/09/09 03:22:46;;;;;;;5.72;4.75;;;20.80;96.70;;;;;;4959840;28;20619;-74
2021/09/09 03:25:14;;;;;;;6.35;4.70;;;20.70;96.70;;;;;;4963469;28;20109;-74
2021/09/09 03:27:43;;;;;;;6.50;4.25;;;20.60;96.70;;;;;;4960556;28;20061;-73
2021/09/09 03:30:12;;;;;;;6.35;4.63;;;20.50;96.70;;;;;;4963679;28;20042;-74
2021/09/09 03:32:40;;;;;;;5.95;4.53;;;20.50;96.70;;;;;;4960230;28;20473;-74
2021/09/09 03:35:09;;;;;;;5.53;5.00;;;20.60;96.70;;;;;;4966846;28;20511;-74
2021/09/09 03:37:38;;;;;;;8.05;5.25;;;20.60;96.70;;;;;;4966418;28;20058;-74
2021/09/09 03:40:06;;;;;;;5.25;4.50;;;20.50;96.70;;;;;;4955978;28;20051;-74
2021/09/09 03:42:35;;;;;;;6.20;4.65;;;20.40;96.70;;;;;;4966363;28;20113;-74
2021/09/09 03:45:05;;;;;;;5.20;4.70;;;20.40;96.70;;;;;;4964832;28;20494;-74
2021/09/09 03:47:33;;;;;;;6.90;5.20;;;20.50;96.70;;;;;;4965574;28;20046;-74
2021/09/09 03:50:02;;;;;;;6.60;4.85;;;20.50;96.70;;;;;;4962430;28;20158;-74
2021/09/09 03:52:30;;;;;;;5.93;5.10;;;20.50;96.70;;;;;;4961336;28;20572;-74
2021/09/09 03:54:58;;;;;;;5.38;4.82;;;20.30;96.70;;;;;;4967954;28;20078;-74
2021/09/09 03:57:26;;;;;;;7.32;5.15;;;20.20;96.70;;;;;;4968604;28;20081;-74
2021/09/09 03:59:54;;;;;;;5.07;4.57;;;20.20;96.70;;;;;;4970823;28;20274;-74
2021/09/09 04:02:23;;;;;;;6.78;5.35;;;20.10;96.70;;;;;;4964592;28;20042;-74
2021/09/09 04:04:52;;;;;;;6.00;4.68;;;20.20;96.70;;;;;;4963087;28;20071;-74
2021/09/09 04:07:20;;;;;;;5.82;5.22;;;20.30;96.70;;;;;;4964338;28;20125;-74
2021/09/09 04:09:48;;;;;;;6.63;5.18;;;20.30;96.70;;;;;;4954325;28;20074;-73
2021/09/09 04:12:17;;;;;;;5.55;5.05;;;20.30;96.70;;;;;;4961857;28;20105;-74
2021/09/09 04:14:45;;;;;;;6.68;4.70;;;20.20;96.70;;;;;;4950490;28;20061;-74
2021/09/09 04:17:13;;;;;;;7.25;5.20;;;20.00;96.70;;;;;;4975583;28;20046;-74
2021/09/09 04:19:42;;;;;;;5.30;4.80;;;20.00;96.70;;;;;;4959872;28;20047;-73
2021/09/09 04:22:11;;;;;;;6.50;4.82;;;20.10;96.70;;;;;;4972345;28;20034;-74
2021/09/09 04:24:40;;;;;;;6.68;5.88;;;20.10;96.70;;;;;;4965441;28;20041;-74
2021/09/09 04:27:08;;;;;;;6.78;5.05;;;20.10;96.70;;;;;;4958112;28;20047;-74
2021/09/09 04:29:36;;;;;;;7.93;5.28;;;20.00;96.70;;;;;;4959025;28;20541;-74
2021/09/09 04:32:05;;;;;;;6.35;5.05;;;20.00;96.70;;;;;;4963825;28;20039;-74
2021/09/09 04:34:33;;;;;;;7.35;5.00;;;19.90;96.70;;;;;;4961365;28;20039;-74
2021/09/09 04:37:02;;;;;;;7.32;5.45;;;19.90;96.70;;;;;;4968038;28;20140;-74
2021/09/09 04:39:30;;;;;;;8.23;5.22;;;19.80;96.70;;;;;;4956081;28;20564;-74
2021/09/09 04:41:58;;;;;;;5.18;4.78;;;19.90;96.70;;;;;;4963752;28;20062;-73
2021/09/09 04:44:27;;;;;;;7.57;5.05;;;20.00;96.70;;;;;;4962301;28;20457;-74
2021/09/09 04:46:55;;;;;;;7.50;5.38;;;19.90;96.70;;;;;;4957222;28;20047;-74
2021/09/09 04:49:22;;;;;;;5.70;5.13;;;19.80;96.70;;;;;;4966811;28;20161;-74
2021/09/09 04:51:51;;;;;;;8.60;4.95;;;19.80;96.70;;;;;;4958302;28;20065;-74
2021/09/09 04:54:20;;;;;;;7.32;5.78;;;19.80;96.70;;;;;;4958917;28;20534;-74
2021/09/09 04:56:50;;;;;;;7.47;5.72;;;19.90;96.70;;;;;;4963859;28;20046;-73
2021/09/09 04:59:18;;;;;;;10.30;5.25;;;20.00;96.70;;;;;;4956635;28;20670;-74
2021/09/09 05:01:46;;;;;;;10.35;5.80;;;20.00;96.70;;;;;;4978997;28;20062;-73
2021/09/09 05:04:15;;;;;;;8.18;5.10;;;20.10;96.70;;;;;;4977536;28;20043;-74
2021/09/09 05:06:43;;;;;;;7.15;5.57;;;20.10;96.70;;;;;;4960564;28;20137;-74
2021/09/09 05:09:11;;;;;;;7.93;6.13;;;19.90;96.70;;;;;;4963079;28;20065;-74
2021/09/09 05:11:41;;;;;;;8.25;5.90;;;19.80;96.70;;;;;;4958886;28;20066;-74
2021/09/09 05:14:09;;;;;;;8.25;6.00;;;19.70;96.70;;;;;;4962351;28;20043;-74
2021/09/09 05:16:37;;;;;;;8.75;6.63;;;19.70;96.70;;;;;;4963641;28;20161;-74
2021/09/09 05:19:07;;;;;;;8.57;5.72;;;19.70;96.70;;;;;;4958071;28;20665;-74
2021/09/09 05:21:35;;;;;;;9.20;5.88;;;19.70;96.70;;;;;;4957222;28;20417;-74
2021/09/09 05:24:04;;;;;;;7.68;5.80;;;19.80;96.70;;;;;;4966082;28;20038;-73
2021/09/09 05:26:32;;;;;;;9.15;5.93;;;19.90;96.70;;;;;;4958375;28;20035;-74
2021/09/09 05:29:02;;;;;;;10.43;6.15;;;19.90;96.70;;;;;;4955413;28;20043;-74
2021/09/09 05:31:30;;;;;;;8.20;5.75;;;20.00;96.70;;;;;;4962098;28;20066;-74
2021/09/09 05:33:58;;;;;;;9.15;6.43;;;20.00;96.70;;;;;;4959124;28;20047;-74
2021/09/09 05:36:26;;;;;;;7.10;5.47;;;20.00;96.70;;;;;;4964323;28;20054;-74
2021/09/09 05:38:54;;;;;;;7.32;5.45;;;19.90;96.70;;;;;;4967346;28;20133;-74
2021/09/09 05:41:22;;;;;;;7.15;5.28;;;19.90;96.70;;;;;;4964662;28;20070;-74
2021/09/09 05:43:50;;;;;;;10.38;5.47;;;19.90;96.70;;;;;;4967362;28;20046;-74
2021/09/09 05:46:20;;;;;;;8.00;6.13;;;20.00;96.70;;;;;;4957607;28;20039;-73
2021/09/09 05:48:48;;;;;;;7.30;5.55;;;19.90;96.70;;;;;;4969432;28;20389;-74
2021/09/09 05:51:16;;;;;;;16.13;6.18;;;19.90;96.70;;;;;;4965534;28;20047;-73
2021/09/09 05:53:44;;;;;;;12.20;5.68;;;20.00;96.70;;;;;;4959701;28;20035;-74
2021/09/09 05:56:12;;;;;;;8.02;6.10;;;20.20;96.70;;;;;;4962694;28;20046;-74
2021/09/09 05:58:40;;;;;;;8.43;6.30;;;20.30;96.70;;;;;;4961112;28;20046;-74
2021/09/09 06:01:08;;;;;;;9.77;5.60;;;20.20;96.70;;;;;;4957274;28;20050;-74
2021/09/09 06:03:40;;;;;;;8.73;5.88;;;20.30;96.70;;;;;;4965063;28;20035;-76
2021/09/09 06:06:09;;;;;;;9.25;6.13;;;20.30;96.70;;;;;;4961279;28;20045;-73
2021/09/09 06:08:38;;;;;;;11.43;5.97;;;20.30;96.70;;;;;;4966965;28;20235;-74
2021/09/09 06:11:06;;;;;;;6.35;5.70;;;20.40;96.70;;;;;;4960395;28;20440;-73
2021/09/09 06:13:34;;;;;;;8.80;5.72;;;20.60;96.70;;;;;;4960132;28;20042;-73
2021/09/09 06:16:02;;;;;;;6.75;6.05;;;20.70;96.70;;;;;;4967669;28;20138;-74
2021/09/09 06:18:30;;;;;;;7.40;5.63;;;20.90;96.70;;;;;;4968513;28;20039;-74
2021/09/09 06:20:59;;;;;;;7.47;5.65;;;20.90;96.70;;;;;;4965401;28;20043;-74
2021/09/09 06:23:28;;;;;;;7.18;5.75;;;20.90;96.70;;;;;;4961527;28;20043;-74
2021/09/09 06:26:12;;;;;;;11.00;6.40;;;20.80;96.70;;;;;;4995982;28;20062;-74
2021/09/09 06:28:40;;;;;;;9.43;6.07;;;20.80;96.70;;;;;;4959906;28;20126;-74
2021/09/09 06:31:09;;;;;;;11.65;6.47;;;20.90;96.70;;;;;;4956336;28;20449;-74
2021/09/09 06:33:37;;;;;;;9.27;6.45;;;20.90;96.70;;;;;;4964525;28;20039;-74
2021/09/09 06:36:06;;;;;;;8.15;6.22;;;20.90;96.70;;;;;;4960441;28;20050;-74
2021/09/09 06:38:35;;;;;;;8.75;6.25;;;20.90;96.70;;;;;;4959828;28;20118;-73
2021/09/09 06:41:03;;;;;;;9.52;6.45;;;21.00;96.70;;;;;;4963859;28;20039;-73
2021/09/09 06:43:31;;;;;;;10.38;6.40;;;21.20;96.70;;;;;;4960286;28;20047;-74
2021/09/09 06:45:59;;;;;;;8.38;5.80;;;21.20;96.70;;;;;;4966925;28;20047;-74
2021/09/09 06:48:27;;;;;;;11.27;6.07;;;21.30;96.70;;;;;;4962253;28;20038;-73
2021/09/09 06:50:57;;;;;;;8.48;6.40;;;21.30;96.70;;;;;;4964142;28;20074;-74
2021/09/09 06:53:27;;;;;;;8.52;6.03;;;21.30;96.70;;;;;;4961699;28;20436;-74
2021/09/09 06:55:55;;;;;;;8.45;5.72;;;21.30;96.70;;;;;;4959770;28;20513;-74
2021/09/09 06:58:24;;;;;;;6.80;5.68;;;21.40;96.70;;;;;;4968675;28;20555;-74
2021/09/09 07:00:52;;;;;;;7.97;5.75;;;21.40;96.70;;;;;;4958857;28;20043;-74
2021/09/09 07:03:21;;;;;;;8.75;6.57;;;21.40;96.70;;;;;;4956324;28;20445;-74
2021/09/09 07:05:49;;;;;;;11.43;7.10;;;21.30;96.70;;;;;;4955963;28;20043;-74
2021/09/09 07:08:18;;;;;;;12.77;7.22;;;21.40;96.70;;;;;;4965899;28;20039;-74
2021/09/09 07:10:47;;;;;;;8.48;5.55;;;21.40;96.70;;;;;;4948060;28;20094;-74
2021/09/09 07:13:17;;;;;;;9.43;6.78;;;21.50;96.70;;;;;;4960208;28;20047;-74
2021/09/09 07:15:46;;;;;;;8.73;6.70;;;21.50;96.70;;;;;;4960278;28;20094;-74
2021/09/09 07:18:14;;;;;;;12.35;6.25;;;21.60;96.70;;;;;;4961278;28;20121;-74
2021/09/09 07:20:42;;;;;;;9.82;6.35;;;21.60;96.70;;;;;;4974568;28;20057;-74
2021/09/09 07:23:10;;;;;;;8.20;6.28;;;21.80;96.70;;;;;;4965638;28;20046;-74
2021/09/09 07:25:39;;;;;;;7.63;6.43;;;21.80;96.70;;;;;;4963691;28;20054;-74
2021/09/09 07:28:08;;;;;;;7.95;5.70;;;21.90;96.70;;;;;;4952826;28;20121;-74
2021/09/09 07:30:37;;;;;;;6.82;5.38;;;22.00;96.70;;;;;;4958350;28;20130;-74
2021/09/09 07:33:05;;;;;;;7.07;5.57;;;22.10;96.70;;;;;;4961796;28;20307;-74
2021/09/09 07:35:34;;;;;;;10.68;5.20;;;22.00;96.70;;;;;;4963474;28;20053;-74
2021/09/09 07:38:02;;;;;;;7.63;5.20;;;22.10;96.70;;;;;;4956954;28;20039;-74
2021/09/09 07:40:30;;;;;;;7.22;5.45;;;22.20;96.70;;;;;;4960807;28;20117;-74
2021/09/09 07:43:00;;;;;;;7.65;5.47;;;22.30;96.70;;;;;;4965153;28;20034;-74
2021/09/09 07:45:30;;;;;;;8.60;5.38;;;22.30;96.70;;;;;;4958631;28;20045;-73
2021/09/09 07:47:59;;;;;;;8.23;5.28;;;22.50;96.70;;;;;;4991427;28;20312;-74
2021/09/09 07:50:28;;;;;;;10.73;5.40;;;22.60;96.70;;;;;;4980988;28;20050;-74
2021/09/09 07:52:58;;;;;;;8.73;5.22;;;22.70;96.70;;;;;;4965075;28;20485;-74
2021/09/09 07:55:26;;;;;;;6.03;5.28;;;22.80;96.70;;;;;;4956947;28;20051;-74
2021/09/09 07:57:55;;;;;;;6.45;5.05;;;22.80;96.70;;;;;;4956979;28;20070;-74
2021/09/09 08:00:23;;;;;;;7.05;5.40;;;22.90;96.70;;;;;;4961555;28;20047;-74
2021/09/09 08:02:52;;;;;;;5.97;4.97;;;22.90;96.70;;;;;;4964190;28;20045;-74
2021/09/09 08:05:21;;;;;;;6.40;5.20;;;23.00;96.30;;;;;;4947556;28;20532;-74
2021/09/09 08:07:49;;;;;;;8.05;5.35;;;23.10;95.80;;;;;;4957294;28;20043;-74
2021/09/09 08:10:18;;;;;;;7.00;5.07;;;23.20;95.20;;;;;;4958998;28;20043;-74
2021/09/09 08:12:48;;;;;;;6.35;4.90;;;23.30;95.00;;;;;;4962720;28;20047;-74
2021/09/09 08:15:16;;;;;;;7.15;5.28;;;23.40;95.20;;;;;;4958626;28;20050;-74
2021/09/09 08:17:46;;;;;;;10.25;5.20;;;23.50;95.30;;;;;;4964956;28;20097;-74
2021/09/09 08:20:16;;;;;;;6.95;4.70;;;23.60;95.10;;;;;;4956699;28;20058;-74
2021/09/09 08:22:44;;;;;;;7.07;5.03;;;23.60;95.10;;;;;;4956221;28;20134;-74
2021/09/09 08:25:13;;;;;;;6.65;4.82;;;23.70;94.80;;;;;;4942080;28;20065;-74
2021/09/09 08:27:41;;;;;;;7.35;4.97;;;23.80;94.50;;;;;;4960363;28;20501;-74
2021/09/09 08:30:10;;;;;;;6.75;4.78;;;23.80;93.80;;;;;;4956792;28;20039;-74
2021/09/09 08:32:39;;;;;;;8.85;4.95;;;23.90;93.80;;;;;;4962977;28;20097;-74
2021/09/09 08:35:09;;;;;;;9.68;4.93;;;23.90;93.20;;;;;;4957330;28;20142;-74
2021/09/09 08:37:39;;;;;;;5.57;4.68;;;24.00;93.10;;;;;;4962439;28;20521;-74
2021/09/09 08:40:09;;;;;;;5.93;4.95;;;24.10;93.20;;;;;;4959923;28;20047;-74
2021/09/09 08:42:39;;;;;;;11.32;5.85;;;24.10;92.40;;;;;;4960884;28;20051;-74
2021/09/09 08:45:08;;;;;;;8.50;4.80;;;24.20;91.70;;;;;;4960578;28;20045;-74
2021/09/09 08:47:39;;;;;;;8.88;5.22;;;24.30;91.50;;;;;;4962987;28;20322;-74
2021/09/09 08:50:09;;;;;;;6.38;4.25;;;24.50;91.10;;;;;;4956722;28;20059;-74
2021/09/09 08:52:40;;;;;;;7.10;4.60;;;24.70;90.80;;;;;;4957641;28;20043;-74
2021/09/09 08:55:09;;;;;;;6.15;4.63;;;24.70;90.50;;;;;;4960447;28;20042;-74
2021/09/09 08:57:39;;;;;;;6.50;4.50;;;24.80;90.30;;;;;;4963652;28;20073;-74
2021/09/09 09:00:08;;;;;;;4.90;4.32;;;25.00;89.80;;;;;;4962134;28;20038;-74
2021/09/09 09:02:50;;;;;;;7.47;4.85;;;25.00;89.00;;;;;;4953059;28;20051;-74
2021/09/09 09:05:20;;;;;;;5.43;3.80;;;25.10;89.10;;;;;;4963529;28;20039;-74
2021/09/09 09:07:59;;;;;;;4.93;4.50;;;25.20;88.30;;;;;;4954472;28;20050;-74
2021/09/09 09:10:28;;;;;;;5.15;4.18;;;25.30;88.60;;;;;;4959032;28;20184;-74
2021/09/09 09:12:56;;;;;;;5.28;4.47;;;25.40;88.20;;;;;;4961716;28;20054;-74
2021/09/09 09:15:27;;;;;;;5.78;4.57;;;25.50;88.30;;;;;;4955899;28;20039;-74
2021/09/09 09:18:02;;;;;;;5.22;4.72;;;25.60;87.90;;;;;;4959576;28;20129;-74
2021/09/09 09:20:40;;;;;;;6.78;4.47;;;25.60;88.30;;;;;;4957278;28;20142;-75
2021/09/09 09:23:17;;;;;;;8.60;4.85;;;25.60;88.20;;;;;;4955440;28;20417;-74
2021/09/09 09:25:48;;;;;;;7.20;4.90;;;25.60;87.70;;;;;;4956107;28;20094;-75
2021/09/09 09:28:17;;;;;;;8.32;4.20;;;25.50;88.30;;;;;;4959594;28;20573;-74
2021/09/09 09:31:02;;;;;;;6.95;4.45;;;25.50;88.10;;;;;;4959711;28;20051;-74
2021/09/09 09:33:32;;;;;;;6.05;3.97;;;25.50;88.00;;;;;;4945008;28;20051;-74
2021/09/09 09:36:16;;;;;;;7.70;4.80;;;25.50;88.10;;;;;;4960035;28;20043;-74
2021/09/09 09:38:46;;;;;;;6.38;4.00;;;25.60;87.70;;;;;;4962570;28;20466;-74
2021/09/09 09:41:18;;;;;;;5.28;4.20;;;25.80;88.00;;;;;;4968186;28;20059;-74
2021/09/09 09:43:54;;;;;;;6.32;4.40;;;26.00;87.80;;;;;;4964808;28;20063;-74
2021/09/09 09:46:23;;;;;;;;;;;26.00;87.60;;;;;;4959522;28;20043;-74
2021/09/09 09:48:52;;;;;;;7.00;4.45;;;26.10;87.60;;;;;;4961995;28;19949;-74
2021/09/09 09:51:39;;;;;;;7.32;4.68;;;26.10;87.60;;;;;;4953722;28;20054;-74
2021/09/09 09:54:11;;;;;;;4.88;4.47;;;26.30;86.90;;;;;;4962712;28;20465;-74
2021/09/09 09:56:41;;;;;;;5.43;4.38;;;26.30;87.50;;;;;;4958044;28;20043;-74
2021/09/09 09:59:09;;;;;;;4.80;4.18;;;26.60;86.40;;;;;;4962637;28;20042;-74
2021/09/09 10:01:38;;;;;;;4.45;4.05;;;26.80;85.80;;;;;;4961427;28;20101;-75
2021/09/09 10:04:09;;;;;;;4.45;4.10;;;26.80;84.60;;;;;;4960548;28;20142;-74
2021/09/09 10:06:41;;;;;;;9.00;4.18;;;26.80;85.30;;;;;;4960283;28;20043;-74
2021/09/09 10:09:13;;;;;;;5.72;4.13;;;26.80;85.20;;;;;;4963588;28;20046;-74
2021/09/09 10:11:41;;;;;;;5.82;4.60;;;26.70;85.30;;;;;;4958234;28;20050;-74
2021/09/09 10:14:18;;;;;;;6.70;3.95;;;26.90;84.80;;;;;;4957119;28;20036;-74
2021/09/09 10:16:47;;;;;;;4.45;3.90;;;27.10;84.00;;;;;;4956486;28;20047;-74
2021/09/09 10:19:26;;;;;;;5.15;4.65;;;27.20;83.00;;;;;;4965368;28;20059;-75
2021/09/09 10:22:07;;;;;;;5.78;4.15;;;27.20;82.70;;;;;;4966465;28;20043;-75
2021/09/09 10:24:38;;;;;;;5.50;3.90;;;27.20;82.50;;;;;;4960152;28;20039;-74
2021/09/09 10:27:24;;;;;;;4.45;3.92;;;27.20;82.10;;;;;;4964835;28;20046;-75
2021/09/09 10:30:00;;;;;;;5.85;4.40;;;27.10;80.90;;;;;;4960559;28;20055;-75
2021/09/09 10:32:55;;;;;;;7.27;3.87;;;27.10;79.10;;;;;;4962290;28;20061;-75
2021/09/09 10:35:31;;;;;;;4.35;3.90;;;27.20;77.60;;;;;;4963837;28;20051;-75
2021/09/09 10:38:27;;;;;;;4.72;4.10;;;27.60;77.60;;;;;;4974899;28;20046;-75
2021/09/09 10:41:00;;;;;;;6.13;3.77;;;27.50;78.00;;;;;;4979181;28;20039;-75
2021/09/09 10:43:46;;;;;;;4.10;3.70;;;27.70;78.00;;;;;;4963090;28;20057;-75
2021/09/09 10:46:15;;;;;;;6.03;4.22;;;27.90;78.40;;;;;;4956783;28;20043;-75
2021/09/09 10:48:45;;;;;;;6.85;4.20;;;28.00;78.80;;;;;;4958936;28;20486;-75
2021/09/09 10:51:18;;;;;;;4.28;3.75;;;28.00;78.00;;;;;;4965571;28;20528;-75
2021/09/09 10:53:53;;;;;;;5.35;3.75;;;28.10;78.60;;;;;;4959197;28;20039;-74
2021/09/09 10:56:25;;;;;;;5.65;3.85;;;28.20;78.90;;;;;;4966868;28;20039;-75
2021/09/09 10:59:14;;;;;;;5.85;4.53;;;28.40;79.20;;;;;;4953189;28;20511;-75
2021/09/09 11:01:45;;;;;;;5.07;4.03;;;28.50;77.70;;;;;;4949382;28;20138;-75
2021/09/09 11:04:29;;;;;;;4.72;3.58;;;28.50;77.50;;;;;;4959097;28;20070;-75
2021/09/09 11:06:59;;;;;;;7.80;4.28;;;28.60;77.70;;;;;;4962349;28;20047;-75
2021/09/09 11:09:28;;;;;;;5.35;4.45;;;28.60;77.20;;;;;;4964479;28;20043;-75
2021/09/09 11:11:59;;;;;;;5.97;4.50;;;28.60;77.20;;;;;;4957101;28;20039;-75
2021/09/09 11:14:28;;;;;;;5.25;4.55;;;28.80;76.70;;;;;;4962290;28;20497;-75
2021/09/09 11:16:57;;;;;;;5.07;3.72;;;28.70;76.90;;;;;;4957803;28;22617;-75
2021/09/09 11:19:28;;;;;;;4.97;4.30;;;28.80;76.50;;;;;;4962561;28;20053;-75
2021/09/09 11:22:00;;;;;;;5.03;4.53;;;28.80;76.60;;;;;;4950477;28;20046;-75
2021/09/09 11:24:33;;;;;;;4.35;3.95;;;28.90;76.50;;;;;;4980834;28;20646;-75
2021/09/09 11:27:12;;;;;;;5.22;4.25;;;28.80;77.10;;;;;;4962128;28;20054;-75
2021/09/09 11:29:41;;;;;;;7.53;4.25;;;28.80;77.60;;;;;;4959470;28;20039;-74
2021/09/09 11:32:13;;;;;;;5.13;4.28;;;29.00;76.50;;;;;;4962497;28;20042;-75
2021/09/09 11:34:42;;;;;;;4.72;4.32;;;29.20;77.10;;;;;;4963266;28;20039;-75
2021/09/09 11:37:10;;;;;;;6.13;4.50;;;29.30;76.20;;;;;;4961045;28;20034;-75
2021/09/09 11:39:38;;;;;;;5.00;4.60;;;29.10;76.20;;;;;;4965374;28;20142;-75
2021/09/09 11:42:14;;;;;;;7.80;4.20;;;29.20;76.30;;;;;;4959394;28;20043;-75
2021/09/09 11:44:42;;;;;;;5.90;4.78;;;29.40;76.10;;;;;;4965974;28;20050;-75
2021/09/09 11:47:12;;;;;;;5.60;4.22;;;29.60;75.90;;;;;;4961970;28;20121;-75
2021/09/09 11:49:40;;;;;;;5.47;3.90;;;29.70;75.30;;;;;;4961676;28;20057;-75
2021/09/09 11:52:09;;;;;;;4.93;3.78;;;29.50;74.00;;;;;;4945947;28;20062;-75
2021/09/09 11:54:39;;;;;;;6.30;4.30;;;29.50;74.40;;;;;;4960542;28;20586;-75
2021/09/09 11:57:09;;;;;;;4.50;4.10;;;29.40;74.80;;;;;;4961831;28;20139;-75
2021/09/09 11:59:48;;;;;;;8.45;4.15;;;29.60;75.00;;;;;;4960004;28;20054;-75
2021/09/09 12:02:19;;;;;;;5.57;3.85;;;29.80;73.70;;;;;;4962999;28;20046;-75
2021/09/09 12:04:48;;;;;;;4.68;3.65;;;29.90;73.50;;;;;;4963407;28;20050;-75
2021/09/09 12:07:18;;;;;;;5.32;3.83;;;30.00;73.30;;;;;;4963268;28;20046;-75
2021/09/09 12:09:54;;;;;;;5.50;3.97;;;30.00;73.50;;;;;;4962300;28;20058;-75
2021/09/09 12:12:23;;;;;;;6.60;3.95;;;30.10;73.00;;;;;;4954226;28;20476;-75
2021/09/09 12:14:59;;;;;;;6.30;4.18;;;30.20;72.80;;;;;;4959161;28;20038;-75
2021/09/09 12:17:28;;;;;;;6.65;3.88;;;30.10;73.20;;;;;;4992047;28;20189;-75
2021/09/09 12:19:59;;;;;;;6.53;4.18;;;30.30;73.20;;;;;;4968579;28;20050;-75
2021/09/09 12:22:45;;;;;;;4.28;3.67;;;30.40;72.50;;;;;;4966059;28;20587;-75
2021/09/09 12:25:30;;;;;;;4.72;3.95;;;30.50;72.30;;;;;;4958428;28;20516;-75
2021/09/09 12:28:06;;;;;;;5.32;4.15;;;30.50;72.20;;;;;;4967222;28;20043;-75
2021/09/09 12:30:37;;;;;;;5.90;4.40;;;30.60;72.10;;;;;;4962749;28;20049;-75
2021/09/09 12:33:17;;;;;;;6.25;3.67;;;30.80;71.80;;;;;;4980555;28;20142;-75
2021/09/09 12:36:02;;;;;;;8.10;4.35;;;30.70;71.70;;;;;;4963251;28;20046;-75
2021/09/09 12:38:32;;;;;;;4.78;3.90;;;30.80;71.20;;;;;;4967496;28;20047;-75
2021/09/09 12:41:01;;;;;;;4.28;3.80;;;30.90;70.60;;;;;;4962727;28;20464;-75
2021/09/09 12:43:31;;;;;;;5.15;4.28;;;30.90;71.20;;;;;;4960133;28;20043;-75
2021/09/09 12:46:02;;;;;;;5.70;4.45;;;30.80;71.20;;;;;;4964086;28;20046;-75
2021/09/09 12:48:32;;;;;;;4.72;4.00;;;30.60;71.10;;;;;;4961857;28;20051;-75
2021/09/09 12:51:03;;;;;;;5.03;3.72;;;30.60;70.40;;;;;;4994547;28;20101;-75
2021/09/09 12:53:33;;;;;;;4.22;3.83;;;30.70;70.80;;;;;;4943056;28;20058;-75
2021/09/09 12:56:04;;;;;;;4.35;3.80;;;30.80;69.70;;;;;;4957252;28;20423;-75
2021/09/09 12:58:33;;;;;;;4.03;3.35;;;31.00;69.70;;;;;;4960277;28;20039;-75
2021/09/09 13:01:03;;;;;;;3.97;3.58;;;31.00;68.30;;;;;;4946203;28;20497;-75